sensor_id;sensor_type;location;lat;lon;timestamp;temperature;humidity
8481;DHT22;4277;51.354;6.740;2023-09-07T07:13:36;17.50;99.90
8481;DHT22;4277;51.354;6.740;2023-09-07T07:16:02;18.50;99.90
8481;DHT22;4277;51.354;6.740;2023-09-07T07:18:29;18.60;99.90
8481;DHT22;4277;51.354;6.740;2023-09-07T07:20:54;18.60;99.90
8481;DHT22;4277;51.354;6.740;2023-09-07T07:23:20;18.70;99.90
8481;DHT22;4277;51.354;6.740;2023-09-07T07:25:45;18.80;99.90
8481;DHT22;4277;51.354;6.740;2023-09-07T07:30:38;18.90;99.90
8481;DHT22;4277;51.354;6.740;2023-09-07T07:35:35;19.00;99.90
8481;DHT22;4277;51.354;6.740;2023-09-07T07:38:02;19.10;99.90
8481;DHT22;4277;51.354;6.740;2023-09-07T07:40:29;19.10;99.90
8481;DHT22;4277;51.354;6.740;2023-09-07T10:10:16;23.90;67.00
8481;DHT22;4277;51.354;6.740;2023-09-07T10:32:39;24.30;62.70
8481;DHT22;4277;51.354;6.740;2023-09-07T10:35:18;25.00;52.50
8481;DHT22;4277;51.354;6.740;2023-09-07T10:37:45;24.90;43.50
8481;DHT22;4277;51.354;6.740;2023-09-07T11:07:33;25.70;46.30
8481;DHT22;4277;51.354;6.740;2023-09-07T11:09:58;25.80;32.50
8481;DHT22;4277;51.354;6.740;2023-09-07T12:18:27;27.40;24.30
8481;DHT22;4277;51.354;6.740;2023-09-07T12:20:53;27.30;28.20
8481;DHT22;4277;51.354;6.740;2023-09-07T12:23:19;27.40;29.40
8481;DHT22;4277;51.354;6.740;2023-09-07T12:25:45;27.50;22.00
8481;DHT22;4277;51.354;6.740;2023-09-07T12:28:15;27.50;21.30
8481;DHT22;4277;51.354;6.740;2023-09-07T12:30:41;27.30;21.30
8481;DHT22;4277;51.354;6.740;2023-09-07T12:33:09;27.50;23.90
8481;DHT22;4277;51.354;6.740;2023-09-07T12:35:35;27.40;27.30
8481;DHT22;4277;51.354;6.740;2023-09-07T12:38:00;27.30;24.00
8481;DHT22;4277;51.354;6.740;2023-09-07T12:40:26;27.40;17.00
8481;DHT22;4277;51.354;6.740;2023-09-07T12:42:51;27.60;17.50
8481;DHT22;4277;51.354;6.740;2023-09-07T12:45:17;27.70;23.90
8481;DHT22;4277;51.354;6.740;2023-09-07T12:47:42;27.70;21.30
8481;DHT22;4277;51.354;6.740;2023-09-07T12:50:08;27.60;18.10
8481;DHT22;4277;51.354;6.740;2023-09-07T12:52:34;27.80;19.00
8481;DHT22;4277;51.354;6.740;2023-09-07T12:55:05;27.90;21.20
8481;DHT22;4277;51.354;6.740;2023-09-07T12:57:30;27.90;14.50
8481;DHT22;4277;51.354;6.740;2023-09-07T12:59:56;27.80;21.70
8481;DHT22;4277;51.354;6.740;2023-09-07T13:02:21;27.80;17.20
8481;DHT22;4277;51.354;6.740;2023-09-07T13:04:47;27.80;22.20
8481;DHT22;4277;51.354;6.740;2023-09-07T13:07:13;27.80;22.10
8481;DHT22;4277;51.354;6.740;2023-09-07T13:09:38;27.80;13.50
8481;DHT22;4277;51.354;6.740;2023-09-07T13:12:04;27.80;23.00
8481;DHT22;4277;51.354;6.740;2023-09-07T13:14:30;27.80;20.70
8481;DHT22;4277;51.354;6.740;2023-09-07T13:16:55;27.90;20.00
8481;DHT22;4277;51.354;6.740;2023-09-07T13:19:21;28.10;9.40
8481;DHT22;4277;51.354;6.740;2023-09-07T13:21:46;28.10;13.30
8481;DHT22;4277;51.354;6.740;2023-09-07T13:24:12;28.20;17.00
8481;DHT22;4277;51.354;6.740;2023-09-07T13:26:39;28.20;10.40
8481;DHT22;4277;51.354;6.740;2023-09-07T13:29:05;28.40;13.50
8481;DHT22;4277;51.354;6.740;2023-09-07T13:31:30;28.50;12.30
8481;DHT22;4277;51.354;6.740;2023-09-07T13:33:56;28.60;14.10
8481;DHT22;4277;51.354;6.740;2023-09-07T13:36:21;28.70;15.10
8481;DHT22;4277;51.354;6.740;2023-09-07T13:38:47;28.70;4.50
8481;DHT22;4277;51.354;6.740;2023-09-07T13:41:12;29.00;4.80
8481;DHT22;4277;51.354;6.740;2023-09-07T13:43:38;29.10;4.40
8481;DHT22;4277;51.354;6.740;2023-09-07T13:46:04;29.00;3.00
8481;DHT22;4277;51.354;6.740;2023-09-07T13:48:29;29.00;1.00
8481;DHT22;4277;51.354;6.740;2023-09-07T13:50:55;29.00;3.60
8481;DHT22;4277;51.354;6.740;2023-09-07T13:53:21;29.00;2.70
8481;DHT22;4277;51.354;6.740;2023-09-07T13:55:46;29.10;1.00
8481;DHT22;4277;51.354;6.740;2023-09-07T13:58:12;29.10;2.50
8481;DHT22;4277;51.354;6.740;2023-09-07T14:00:37;29.00;1.00
8481;DHT22;4277;51.354;6.740;2023-09-07T14:03:04;29.00;1.00
8481;DHT22;4277;51.354;6.740;2023-09-07T14:05:29;28.90;2.70
8481;DHT22;4277;51.354;6.740;2023-09-07T14:07:55;29.00;1.00
8481;DHT22;4277;51.354;6.740;2023-09-07T14:10:22;29.00;1.10
8481;DHT22;4277;51.354;6.740;2023-09-07T14:12:48;29.00;1.00
8481;DHT22;4277;51.354;6.740;2023-09-07T14:15:13;29.10;1.00
8481;DHT22;4277;51.354;6.740;2023-09-07T14:17:39;29.10;1.00
8481;DHT22;4277;51.354;6.740;2023-09-07T14:20:05;29.40;1.00
8481;DHT22;4277;51.354;6.740;2023-09-07T14:22:30;29.40;1.00
8481;DHT22;4277;51.354;6.740;2023-09-07T14:24:56;29.50;1.00
8481;DHT22;4277;51.354;6.740;2023-09-07T14:27:21;29.70;1.00
8481;DHT22;4277;51.354;6.740;2023-09-07T14:29:47;29.80;1.00
8481;DHT22;4277;51.354;6.740;2023-09-07T14:32:13;29.70;1.00
8481;DHT22;4277;51.354;6.740;2023-09-07T14:34:38;29.70;1.00
8481;DHT22;4277;51.354;6.740;2023-09-07T14:37:04;29.70;1.00
8481;DHT22;4277;51.354;6.740;2023-09-07T14:39:29;29.80;1.00
8481;DHT22;4277;51.354;6.740;2023-09-07T14:41:55;29.80;2.70
8481;DHT22;4277;51.354;6.740;2023-09-07T14:44:22;29.90;2.80
8481;DHT22;4277;51.354;6.740;2023-09-07T14:46:47;29.80;3.90
8481;DHT22;4277;51.354;6.740;2023-09-07T14:49:15;29.70;4.60
8481;DHT22;4277;51.354;6.740;2023-09-07T14:51:42;29.70;3.60
8481;DHT22;4277;51.354;6.740;2023-09-07T14:54:08;29.60;5.10
8481;DHT22;4277;51.354;6.740;2023-09-07T14:56:33;29.70;3.70
8481;DHT22;4277;51.354;6.740;2023-09-07T14:59:01;29.80;1.30
8481;DHT22;4277;51.354;6.740;2023-09-07T15:01:26;29.80;1.00
8481;DHT22;4277;51.354;6.740;2023-09-07T15:03:52;29.90;2.80
8481;DHT22;4277;51.354;6.740;2023-09-07T15:06:18;29.90;3.20
8481;DHT22;4277;51.354;6.740;2023-09-07T15:08:44;29.90;5.30
8481;DHT22;4277;51.354;6.740;2023-09-07T15:11:09;29.80;7.00
8481;DHT22;4277;51.354;6.740;2023-09-07T15:13:37;29.90;4.60
8481;DHT22;4277;51.354;6.740;2023-09-07T15:16:03;29.80;4.30
8481;DHT22;4277;51.354;6.740;2023-09-07T15:18:30;29.80;8.00
8481;DHT22;4277;51.354;6.740;2023-09-07T15:20:55;29.90;6.30
8481;DHT22;4277;51.354;6.740;2023-09-07T15:23:22;29.90;5.20
8481;DHT22;4277;51.354;6.740;2023-09-07T15:25:47;30.00;5.30
8481;DHT22;4277;51.354;6.740;2023-09-07T15:28:13;29.80;6.20
8481;DHT22;4277;51.354;6.740;2023-09-07T15:30:39;29.90;4.40
8481;DHT22;4277;51.354;6.740;2023-09-07T15:33:04;29.80;3.20
8481;DHT22;4277;51.354;6.740;2023-09-07T15:35:30;29.80;5.20
8481;DHT22;4277;51.354;6.740;2023-09-07T15:37:55;30.00;4.80
8481;DHT22;4277;51.354;6.740;2023-09-07T15:40:21;30.00;5.30
8481;DHT22;4277;51.354;6.740;2023-09-07T15:42:46;30.00;6.10
8481;DHT22;4277;51.354;6.740;2023-09-07T15:45:12;30.00;4.60
8481;DHT22;4277;51.354;6.740;2023-09-07T15:47:38;30.10;5.40
8481;DHT22;4277;51.354;6.740;2023-09-07T15:50:04;30.00;7.00
8481;DHT22;4277;51.354;6.740;2023-09-07T15:52:30;29.90;8.50
8481;DHT22;4277;51.354;6.740;2023-09-07T15:54:55;29.90;6.00
8481;DHT22;4277;51.354;6.740;2023-09-07T15:57:21;30.00;9.90
8481;DHT22;4277;51.354;6.740;2023-09-07T15:59:46;30.00;6.60
8481;DHT22;4277;51.354;6.740;2023-09-07T16:02:12;30.00;11.10
8481;DHT22;4277;51.354;6.740;2023-09-07T16:04:38;30.00;3.80
8481;DHT22;4277;51.354;6.740;2023-09-07T16:07:03;30.10;1.00
8481;DHT22;4277;51.354;6.740;2023-09-07T16:09:29;30.20;1.00
8481;DHT22;4277;51.354;6.740;2023-09-07T16:11:55;30.20;1.00
8481;DHT22;4277;51.354;6.740;2023-09-07T16:14:20;30.20;1.00
8481;DHT22;4277;51.354;6.740;2023-09-07T16:16:46;30.20;1.00
8481;DHT22;4277;51.354;6.740;2023-09-07T16:19:11;30.10;1.00
8481;DHT22;4277;51.354;6.740;2023-09-07T16:21:37;30.10;1.00
8481;DHT22;4277;51.354;6.740;2023-09-07T16:24:03;30.00;1.00
8481;DHT22;4277;51.354;6.740;2023-09-07T16:26:28;29.90;1.00
8481;DHT22;4277;51.354;6.740;2023-09-07T16:28:54;29.80;1.00
8481;DHT22;4277;51.354;6.740;2023-09-07T16:31:19;29.50;1.00
8481;DHT22;4277;51.354;6.740;2023-09-07T16:33:45;29.30;1.00
8481;DHT22;4277;51.354;6.740;2023-09-07T16:36:10;29.20;1.00
